Terminal Aerodrome Forecast
Issued by NWS Chicago, IL

Home | Current Version | Previous Version | Text Only | Print | Product List | Glossary On
Versions: 1 2 3 4 5 6 7 8 9 10 11 12 13 14 15 16 17 18 19 20 21 22 23 24 25 26 27 28 29 30 31 32 33 34 35 36 37 38 39 40 41
000
FTUS43 KLOT 061523 AAC
TAFRFD
TAF AMD
KRFD 061523Z 0615/0712 13005KT 3SM BR OVC005
     FM061600 16006KT 5SM BR SCT005 SCT020 BKN040
     FM061900 16012KT P6SM BKN050
     FM070300 14007KT 4SM BR FEW004 SCT050=

USA.gov is the U.S. government's official web portal to all federal, state and local government web resources and services.